Time;durP1;ratioP1;P1;durP2;ratioP2;P2;SDS_P1;SDS_P2;PMS_P1;PMS_P2;Temp;Humidity;BMP_temperature;BMP_pressure;BME280_temperature;BME280_humidity;BME280_pressure;Samples;Min_cycle;Max_cycle;Signal;HPM_P1;HPM_P2
2024/01/18 00:04:55;;;;;;;43.20;20.30;;;;;;;1.21;80.01;97608.29;682176;1266;138781;-79
2024/01/18 00:19:59;;;;;;;151.30;41.60;;;;;;;1.20;80.50;97597.58;682147;1263;139524;-80
2024/01/18 00:35:03;;;;;;;74.00;26.30;;;;;;;1.11;80.16;97590.14;682060;1266;138903;-80
2024/01/18 00:50:08;;;;;;;90.70;31.30;;;;;;;1.07;81.39;97588.55;682070;1266;138892;-81
2024/01/18 01:05:14;;;;;;;159.80;54.90;;;;;;;1.09;81.61;97578.38;682159;1264;138763;-80
2024/01/18 01:20:19;;;;;;;196.80;57.50;;;;;;;0.99;81.99;97566.05;681840;1262;141121;-80
2024/01/18 01:35:23;;;;;;;82.30;30.30;;;;;;;1.02;82.04;97570.09;682122;1266;139407;-80
2024/01/18 01:50:27;;;;;;;113.40;37.50;;;;;;;1.07;82.24;97568.08;682152;1260;140999;-80
2024/01/18 02:05:32;;;;;;;197.10;58.30;;;;;;;1.13;82.47;97566.19;681970;1264;139881;-78
2024/01/18 02:20:35;;;;;;;75.50;29.50;;;;;;;1.09;82.71;97563.94;682134;1267;139547;-79
2024/01/18 02:35:39;;;;;;;62.20;26.10;;;;;;;1.22;83.21;97558.33;681901;1265;139862;-80
2024/01/18 02:50:42;;;;;;;57.30;25.90;;;;;;;1.32;82.88;97564.11;682167;1263;139625;-80
2024/01/18 03:05:45;;;;;;;77.80;34.80;;;;;;;1.41;83.03;97578.90;682096;1261;139270;-81
2024/01/18 03:20:49;;;;;;;92.50;36.30;;;;;;;1.29;83.54;97567.98;682097;1265;140863;-80
2024/01/18 03:35:54;;;;;;;63.50;28.60;;;;;;;1.34;83.64;97561.52;681967;1263;140957;-80
2024/01/18 03:50:57;;;;;;;56.10;26.70;;;;;;;1.38;83.76;97576.98;681930;1266;139806;-80
2024/01/18 04:06:01;;;;;;;67.90;30.00;;;;;;;1.39;83.29;97602.38;682100;1271;139681;-80
2024/01/18 04:21:05;;;;;;;66.00;29.60;;;;;;;1.33;83.58;97632.05;682150;1260;140267;-80
2024/01/18 04:36:08;;;;;;;83.20;37.40;;;;;;;1.27;84.33;97643.77;682137;1260;139671;-80
2024/01/18 04:51:12;;;;;;;95.30;42.80;;;;;;;1.33;84.14;97659.58;682076;1264;139322;-80
2024/01/18 05:06:16;;;;;;;99.90;39.20;;;;;;;1.36;84.40;97676.88;681977;1260;139187;-80
2024/01/18 05:21:21;;;;;;;139.40;54.80;;;;;;;1.35;84.81;97673.84;682078;1264;138889;-80
2024/01/18 05:36:24;;;;;;;71.50;32.20;;;;;;;1.42;84.60;97677.16;681908;1260;139830;-80
2024/01/18 05:51:27;;;;;;;84.70;36.10;;;;;;;1.38;84.69;97709.55;682169;1260;140235;-80
2024/01/18 06:06:32;;;;;;;98.30;41.10;;;;;;;1.30;84.93;97724.61;681923;1261;139920;-80
2024/01/18 06:21:38;;;;;;;95.20;42.30;;;;;;;1.23;84.50;97744.30;681854;1260;139295;-80
2024/01/18 06:36:48;;;;;;;154.40;57.80;;;;;;;1.24;84.74;97762.83;681697;1265;139085;-80
2024/01/18 06:51:55;;;;;;;98.60;45.90;;;;;;;1.21;84.71;97773.30;681769;1262;139383;-80
2024/01/18 07:07:03;;;;;;;195.10;68.40;;;;;;;1.02;84.27;97781.11;681956;1260;139098;-80
2024/01/18 07:22:08;;;;;;;139.80;53.50;;;;;;;0.90;84.13;97831.81;682109;1261;164368;-80
2024/01/18 07:37:13;;;;;;;153.70;59.40;;;;;;;0.92;83.44;97841.95;681920;1259;139096;-81
2024/01/18 07:52:18;;;;;;;168.70;62.60;;;;;;;0.99;82.80;97862.83;682182;1275;139029;-83
2024/01/18 08:07:22;;;;;;;130.50;50.50;;;;;;;0.97;81.99;97887.93;681941;1262;139866;-81
2024/01/18 08:22:27;;;;;;;184.30;68.50;;;;;;;1.16;81.52;97922.60;682146;1265;139103;-82
2024/01/18 08:37:31;;;;;;;331.70;114.90;;;;;;;1.42;80.83;97939.17;682058;1260;140837;-81
2024/01/18 08:52:34;;;;;;;182.00;69.40;;;;;;;1.66;80.77;97961.03;682138;1262;139155;-80
2024/01/18 09:07:37;;;;;;;113.50;44.20;;;;;;;1.45;80.55;97981.42;682029;1265;140076;-79
2024/01/18 09:22:43;;;;;;;464.60;118.00;;;;;;;1.40;80.34;98002.90;682188;1261;140404;-81
2024/01/18 09:37:49;;;;;;;185.30;67.40;;;;;;;1.60;80.32;97995.11;682059;1260;142366;-79
2024/01/18 09:52:56;;;;;;;90.20;38.20;;;;;;;2.44;80.09;98016.39;682186;1262;139261;-79
2024/01/18 10:08:00;;;;;;;78.20;36.80;;;;;;;2.97;79.05;98033.80;682113;1260;139146;-81
2024/01/18 10:23:05;;;;;;;75.40;34.40;;;;;;;3.15;78.61;98058.20;682235;1263;139916;-80
2024/01/18 10:38:09;;;;;;;79.10;34.20;;;;;;;3.52;77.41;98074.20;681991;1263;139977;-79
2024/01/18 10:53:15;;;;;;;612.40;220.40;;;;;;;4.98;78.09;98076.75;682222;1262;138513;-81
2024/01/18 11:08:18;;;;;;;97.50;43.00;;;;;;;6.64;75.95;98091.44;682031;1264;139695;-80
2024/01/18 11:23:27;;;;;;;146.20;61.00;;;;;;;5.93;74.49;98105.20;682008;1264;139362;-80
2024/01/18 11:38:43;;;;;;;126.10;48.80;;;;;;;5.77;74.40;98117.71;682229;1264;138866;-80
2024/01/18 11:53:47;;;;;;;95.90;42.20;;;;;;;5.68;73.62;98131.40;682224;1264;139802;-82
2024/01/18 12:08:50;;;;;;;75.50;33.10;;;;;;;5.21;74.14;98134.81;682393;1265;138501;-81
2024/01/18 12:23:56;;;;;;;86.90;39.20;;;;;;;5.09;74.12;98137.73;682103;1265;139563;-81
2024/01/18 12:39:02;;;;;;;80.70;33.50;;;;;;;4.82;74.38;98149.00;682095;1263;138716;-81
2024/01/18 12:54:15;;;;;;;92.80;41.00;;;;;;;4.55;73.95;98170.83;681951;1263;139198;-82
2024/01/18 13:09:26;;;;;;;174.90;59.40;;;;;;;4.42;74.33;98183.65;682221;1265;140078;-82
2024/01/18 13:24:31;;;;;;;74.30;30.90;;;;;;;4.32;74.90;98204.15;682082;1264;140640;-82
2024/01/18 13:39:34;;;;;;;114.90;46.90;;;;;;;4.11;74.87;98237.05;682169;1264;139109;-80
2024/01/18 13:54:39;;;;;;;277.90;87.40;;;;;;;3.74;74.97;98253.64;681924;1260;139614;-81
2024/01/18 14:09:43;;;;;;;153.20;57.70;;;;;;;3.50;75.36;98269.34;682210;1265;138956;-81
2024/01/18 14:24:47;;;;;;;97.70;48.80;;;;;;;3.32;75.56;98282.73;682102;1260;140072;-80
2024/01/18 14:39:51;;;;;;;112.00;49.30;;;;;;;3.06;75.79;98277.72;682100;1262;139970;-79
2024/01/18 14:54:56;;;;;;;95.70;44.60;;;;;;;2.77;75.86;98308.40;681936;1265;140785;-78
2024/01/18 15:10:00;;;;;;;226.10;79.90;;;;;;;2.53;76.45;98332.40;682225;1265;139510;-79
2024/01/18 15:25:08;;;;;;;219.20;71.40;;;;;;;2.37;76.74;98350.12;682027;1265;139837;-78
2024/01/18 15:40:14;;;;;;;410.50;138.60;;;;;;;2.19;77.12;98374.04;682083;1267;140917;-78
2024/01/18 15:55:21;;;;;;;117.10;47.60;;;;;;;2.02;77.26;98404.77;682057;1266;139618;-79
2024/01/18 16:10:29;;;;;;;394.30;120.00;;;;;;;1.79;77.63;98436.62;682147;1263;139832;-79
2024/01/18 16:25:33;;;;;;;180.50;61.30;;;;;;;1.72;78.13;98463.39;681869;1267;140367;-78
2024/01/18 16:40:39;;;;;;;117.40;45.60;;;;;;;1.55;78.43;98475.91;681835;1267;140186;-78
2024/01/18 16:55:44;;;;;;;123.60;48.90;;;;;;;1.43;78.71;98497.23;682043;1267;139543;-78
2024/01/18 17:10:50;;;;;;;124.60;49.90;;;;;;;1.30;78.90;98510.82;682017;1267;140533;-78
2024/01/18 17:25:54;;;;;;;156.90;54.40;;;;;;;1.20;79.87;98530.38;681940;1276;140760;-79
2024/01/18 17:41:00;;;;;;;187.70;60.90;;;;;;;1.15;80.23;98552.76;682145;1263;139331;-80
2024/01/18 17:56:04;;;;;;;133.50;43.80;;;;;;;1.07;80.77;98574.08;682089;1263;139918;-79
2024/01/18 18:11:07;;;;;;;118.00;44.00;;;;;;;0.97;80.92;98605.33;682012;1260;139629;-79
2024/01/18 18:26:11;;;;;;;159.50;52.50;;;;;;;0.71;80.76;98637.99;681876;1266;140125;-80
2024/01/18 18:41:16;;;;;;;135.20;44.10;;;;;;;0.42;80.58;98664.66;682026;1260;139977;-80
2024/01/18 18:56:21;;;;;;;110.70;39.80;;;;;;;0.05;80.90;98681.73;681962;1263;139348;-81
2024/01/18 19:11:25;;;;;;;116.70;40.40;;;;;;;-0.34;81.74;98696.61;681731;1260;138925;-80
2024/01/18 19:26:28;;;;;;;130.60;41.00;;;;;;;-0.58;81.84;98726.71;681985;1260;174053;-80
2024/01/18 19:41:35;;;;;;;115.20;40.50;;;;;;;-0.80;81.76;98745.84;681730;1259;139881;-80
2024/01/18 19:56:40;;;;;;;87.20;31.40;;;;;;;-1.08;82.37;98762.43;682081;1261;139344;-79
2024/01/18 20:11:45;;;;;;;117.50;40.80;;;;;;;-1.15;82.40;98793.58;681962;1265;139434;-80
2024/01/18 20:26:49;;;;;;;131.70;35.20;;;;;;;-1.23;82.25;98828.36;681804;1265;140185;-80
2024/01/18 20:41:53;;;;;;;126.00;34.70;;;;;;;-1.37;82.40;98854.64;681805;1263;139313;-80
2024/01/18 20:57:00;;;;;;;85.70;27.10;;;;;;;-1.48;82.46;98882.05;681723;1263;139383;-80
2024/01/18 21:12:04;;;;;;;59.00;20.20;;;;;;;-1.48;82.22;98900.93;681603;1262;139190;-80
2024/01/18 21:27:08;;;;;;;65.10;21.50;;;;;;;-1.58;82.47;98922.13;681803;1264;139768;-80
2024/01/18 21:42:21;;;;;;;37.90;16.50;;;;;;;-1.67;82.84;98946.29;681780;1262;139399;-81
2024/01/18 21:57:24;;;;;;;51.10;19.10;;;;;;;-1.80;83.66;98969.70;681975;1261;139926;-81
2024/01/18 22:12:28;;;;;;;57.00;21.60;;;;;;;-1.88;83.80;98977.48;681701;1265;139248;-80
2024/01/18 22:27:31;;;;;;;48.40;16.60;;;;;;;-2.10;83.10;98999.19;681931;1260;139393;-80
2024/01/18 22:42:37;;;;;;;25.00;11.30;;;;;;;-2.10;83.66;99031.02;682029;1260;139891;-81
2024/01/18 22:57:40;;;;;;;53.00;20.00;;;;;;;-2.20;84.25;99060.17;682065;1262;139172;-80
2024/01/18 23:12:44;;;;;;;54.90;22.30;;;;;;;-2.30;83.97;99088.61;681946;1265;139536;-80
2024/01/18 23:27:48;;;;;;;47.40;17.30;;;;;;;-2.54;83.57;99110.61;681982;1262;139794;-80
2024/01/18 23:42:51;;;;;;;35.20;15.90;;;;;;;-2.69;84.60;99123.38;682012;1262;140036;-81
2024/01/18 23:57:55;;;;;;;35.80;14.30;;;;;;;-2.74;84.87;99144.01;682166;1263;139473;-80
